4A9

Isbell Field Airport

Fort Payne, Alabama, USA
METAR K4A9 242335Z AUTO 00000KT 10SM -RA SCT045 BKN065 OVC100 23/22 A3005 RMK AO2 P0001
Observed Flight Rules
Sep-24 @ 23:35 UTC (17 minutes ago) Visual Flight Rules
Visibility Clouds Conditions
10 miles
  • Scattered at 4,500' AGL
  • Broken at 6,500' AGL
  • Overcast at 10,000' AGL
  • Light Rain
Temperatures Readings Precipitation
Current 23°C / 73°F
Dewpoint 22°C / 72°F
Humidity 94%
Altimeter 30.05" Hg
Pressure 1018 hPa
Elevation 267
Current Rain 0.01
METAR K4A9 242335Z AUTO 00000KT 10SM -RA SCT045 BKN065 OVC100 23/22 A3005 RMK AO2 P0001
Observed Flight Rules
Sep-24 @ 23:35 UTC
(17 minutes ago)
VFR
Clouds
  • Scattered at 4,500' AGL
  • Broken at 6,500' AGL
  • Overcast at 10,000' AGL
Conditions
  • Light Rain
Temperature Dewpoint
23°C / 73°F 22°C / 72°F
Humidity Altimeter Pressure
94% 30.05" Hg 1018 hPa
Current Rain
0.01